sensor_id;sensor_type;location;lat;lon;timestamp;temperature;humidity
67748;HTU21D;54543;50.712;6.070;2023-12-28T00:01:13;9.76;118.99
67748;HTU21D;54543;50.712;6.070;2023-12-28T00:03:39;9.83;116.87
67748;HTU21D;54543;50.712;6.070;2023-12-28T00:06:06;9.71;118.59
67748;HTU21D;54543;50.712;6.070;2023-12-28T00:08:32;9.65;118.99
67748;HTU21D;54543;50.712;6.070;2023-12-28T00:10:58;9.70;118.99
67748;HTU21D;54543;50.712;6.070;2023-12-28T00:13:23;9.65;118.99
67748;HTU21D;54543;50.712;6.070;2023-12-28T00:15:49;9.60;118.99
67748;HTU21D;54543;50.712;6.070;2023-12-28T00:18:14;9.60;118.99
67748;HTU21D;54543;50.712;6.070;2023-12-28T00:20:40;9.65;118.99
67748;HTU21D;54543;50.712;6.070;2023-12-28T00:23:05;9.62;118.99
67748;HTU21D;54543;50.712;6.070;2023-12-28T00:25:31;9.59;118.99
67748;HTU21D;54543;50.712;6.070;2023-12-28T00:27:57;9.65;118.99
67748;HTU21D;54543;50.712;6.070;2023-12-28T00:30:23;9.64;118.99
67748;HTU21D;54543;50.712;6.070;2023-12-28T00:32:48;9.64;118.99
67748;HTU21D;54543;50.712;6.070;2023-12-28T00:35:14;9.68;118.99
67748;HTU21D;54543;50.712;6.070;2023-12-28T00:37:39;9.70;118.99
67748;HTU21D;54543;50.712;6.070;2023-12-28T00:40:05;9.68;118.99
67748;HTU21D;54543;50.712;6.070;2023-12-28T00:42:31;9.75;118.99
67748;HTU21D;54543;50.712;6.070;2023-12-28T00:44:57;9.82;118.99
67748;HTU21D;54543;50.712;6.070;2023-12-28T00:47:22;9.83;118.99
67748;HTU21D;54543;50.712;6.070;2023-12-28T00:49:48;9.79;118.99
67748;HTU21D;54543;50.712;6.070;2023-12-28T00:52:13;9.71;118.99
67748;HTU21D;54543;50.712;6.070;2023-12-28T00:54:39;9.72;118.99
67748;HTU21D;54543;50.712;6.070;2023-12-28T00:57:04;9.74;118.99
67748;HTU21D;54543;50.712;6.070;2023-12-28T00:59:30;9.65;118.99
67748;HTU21D;54543;50.712;6.070;2023-12-28T01:01:57;9.64;118.99
67748;HTU21D;54543;50.712;6.070;2023-12-28T01:04:22;9.69;118.99
67748;HTU21D;54543;50.712;6.070;2023-12-28T01:06:52;9.61;118.99
67748;HTU21D;54543;50.712;6.070;2023-12-28T01:09:18;9.55;118.99
67748;HTU21D;54543;50.712;6.070;2023-12-28T01:11:43;9.70;118.99
67748;HTU21D;54543;50.712;6.070;2023-12-28T01:14:09;9.81;118.99
67748;HTU21D;54543;50.712;6.070;2023-12-28T01:16:35;9.85;118.99
67748;HTU21D;54543;50.712;6.070;2023-12-28T01:19:01;9.79;118.99
67748;HTU21D;54543;50.712;6.070;2023-12-28T01:21:27;9.72;118.99
67748;HTU21D;54543;50.712;6.070;2023-12-28T01:23:54;9.67;118.99
67748;HTU21D;54543;50.712;6.070;2023-12-28T01:26:20;9.70;118.99
67748;HTU21D;54543;50.712;6.070;2023-12-28T01:28:46;9.78;118.99
67748;HTU21D;54543;50.712;6.070;2023-12-28T01:31:12;9.88;118.99
67748;HTU21D;54543;50.712;6.070;2023-12-28T01:33:37;9.93;118.99
67748;HTU21D;54543;50.712;6.070;2023-12-28T01:36:16;9.93;118.99
67748;HTU21D;54543;50.712;6.070;2023-12-28T01:38:42;9.98;118.99
67748;HTU21D;54543;50.712;6.070;2023-12-28T01:41:08;10.13;118.99
67748;HTU21D;54543;50.712;6.070;2023-12-28T01:43:34;10.07;118.99
67748;HTU21D;54543;50.712;6.070;2023-12-28T01:46:00;10.01;118.99
67748;HTU21D;54543;50.712;6.070;2023-12-28T01:48:26;9.93;118.99
67748;HTU21D;54543;50.712;6.070;2023-12-28T01:50:52;9.95;118.99
67748;HTU21D;54543;50.712;6.070;2023-12-28T01:53:18;9.98;118.99
67748;HTU21D;54543;50.712;6.070;2023-12-28T01:55:43;9.97;118.99
67748;HTU21D;54543;50.712;6.070;2023-12-28T01:58:09;9.91;118.99
67748;HTU21D;54543;50.712;6.070;2023-12-28T02:00:36;9.94;118.99
67748;HTU21D;54543;50.712;6.070;2023-12-28T02:03:03;9.97;118.99
67748;HTU21D;54543;50.712;6.070;2023-12-28T02:05:29;10.04;118.99
67748;HTU21D;54543;50.712;6.070;2023-12-28T02:07:55;9.99;118.99
67748;HTU21D;54543;50.712;6.070;2023-12-28T02:10:21;9.98;118.99
67748;HTU21D;54543;50.712;6.070;2023-12-28T02:12:46;9.94;118.99
67748;HTU21D;54543;50.712;6.070;2023-12-28T02:15:12;9.99;118.99
67748;HTU21D;54543;50.712;6.070;2023-12-28T02:17:47;10.11;118.99
67748;HTU21D;54543;50.712;6.070;2023-12-28T02:20:14;10.11;118.99
67748;HTU21D;54543;50.712;6.070;2023-12-28T02:22:40;10.10;118.99
67748;HTU21D;54543;50.712;6.070;2023-12-28T02:25:09;10.10;118.99
67748;HTU21D;54543;50.712;6.070;2023-12-28T02:27:42;10.10;118.99
67748;HTU21D;54543;50.712;6.070;2023-12-28T02:30:09;10.16;118.99
67748;HTU21D;54543;50.712;6.070;2023-12-28T02:35:51;10.25;118.99
67748;HTU21D;54543;50.712;6.070;2023-12-28T02:38:17;10.23;118.99
67748;HTU21D;54543;50.712;6.070;2023-12-28T02:40:44;10.13;118.99
67748;HTU21D;54543;50.712;6.070;2023-12-28T02:43:11;10.13;118.99
67748;HTU21D;54543;50.712;6.070;2023-12-28T02:45:37;10.11;118.99
67748;HTU21D;54543;50.712;6.070;2023-12-28T02:48:04;10.11;118.99
67748;HTU21D;54543;50.712;6.070;2023-12-28T02:50:30;10.16;118.99
67748;HTU21D;54543;50.712;6.070;2023-12-28T02:52:56;10.13;118.99
67748;HTU21D;54543;50.712;6.070;2023-12-28T02:55:22;10.06;118.99
67748;HTU21D;54543;50.712;6.070;2023-12-28T02:57:49;10.13;118.99
67748;HTU21D;54543;50.712;6.070;2023-12-28T03:00:15;10.14;118.39
67748;HTU21D;54543;50.712;6.070;2023-12-28T03:02:41;10.06;118.99
67748;HTU21D;54543;50.712;6.070;2023-12-28T03:05:07;10.13;118.99
67748;HTU21D;54543;50.712;6.070;2023-12-28T03:07:33;10.08;118.95
67748;HTU21D;54543;50.712;6.070;2023-12-28T03:09:59;10.03;118.99
67748;HTU21D;54543;50.712;6.070;2023-12-28T03:12:25;9.97;118.99
67748;HTU21D;54543;50.712;6.070;2023-12-28T03:14:50;9.94;118.99
67748;HTU21D;54543;50.712;6.070;2023-12-28T03:17:16;9.90;118.99
67748;HTU21D;54543;50.712;6.070;2023-12-28T03:19:41;9.90;118.99
67748;HTU21D;54543;50.712;6.070;2023-12-28T03:22:07;9.97;118.99
67748;HTU21D;54543;50.712;6.070;2023-12-28T03:24:33;10.10;118.71
67748;HTU21D;54543;50.712;6.070;2023-12-28T03:26:58;10.08;118.82
67748;HTU21D;54543;50.712;6.070;2023-12-28T03:29:24;10.14;115.90
67748;HTU21D;54543;50.712;6.070;2023-12-28T03:31:50;10.21;118.27
67748;HTU21D;54543;50.712;6.070;2023-12-28T03:34:16;10.24;114.93
67748;HTU21D;54543;50.712;6.070;2023-12-28T03:36:41;10.22;115.94
67748;HTU21D;54543;50.712;6.070;2023-12-28T03:39:08;10.21;114.83
67748;HTU21D;54543;50.712;6.070;2023-12-28T03:41:33;10.25;116.04
67748;HTU21D;54543;50.712;6.070;2023-12-28T03:43:59;10.26;115.44
67748;HTU21D;54543;50.712;6.070;2023-12-28T03:46:26;10.21;115.47
67748;HTU21D;54543;50.712;6.070;2023-12-28T03:48:52;10.21;114.90
67748;HTU21D;54543;50.712;6.070;2023-12-28T03:51:19;10.20;114.18
67748;HTU21D;54543;50.712;6.070;2023-12-28T03:53:45;10.18;116.20
67748;HTU21D;54543;50.712;6.070;2023-12-28T03:56:26;10.27;113.63
67748;HTU21D;54543;50.712;6.070;2023-12-28T03:58:53;10.27;113.67
67748;HTU21D;54543;50.712;6.070;2023-12-28T04:01:20;10.18;114.67
67748;HTU21D;54543;50.712;6.070;2023-12-28T04:03:47;10.13;116.94
67748;HTU21D;54543;50.712;6.070;2023-12-28T04:06:13;10.14;115.06
67748;HTU21D;54543;50.712;6.070;2023-12-28T04:08:40;10.21;115.41
67748;HTU21D;54543;50.712;6.070;2023-12-28T04:11:05;10.22;112.39
67748;HTU21D;54543;50.712;6.070;2023-12-28T04:13:31;10.11;114.01
67748;HTU21D;54543;50.712;6.070;2023-12-28T04:15:56;10.07;115.60
67748;HTU21D;54543;50.712;6.070;2023-12-28T04:18:22;10.12;114.77
67748;HTU21D;54543;50.712;6.070;2023-12-28T04:20:47;10.21;112.57
67748;HTU21D;54543;50.712;6.070;2023-12-28T04:23:14;10.15;113.64
67748;HTU21D;54543;50.712;6.070;2023-12-28T04:25:40;10.06;114.06
67748;HTU21D;54543;50.712;6.070;2023-12-28T04:28:08;9.95;115.69
67748;HTU21D;54543;50.712;6.070;2023-12-28T04:30:34;10.00;116.67
67748;HTU21D;54543;50.712;6.070;2023-12-28T04:33:03;10.05;111.66
67748;HTU21D;54543;50.712;6.070;2023-12-28T04:35:28;10.07;112.74
67748;HTU21D;54543;50.712;6.070;2023-12-28T04:37:54;9.97;112.41
67748;HTU21D;54543;50.712;6.070;2023-12-28T04:40:20;9.97;114.92
67748;HTU21D;54543;50.712;6.070;2023-12-28T04:42:46;9.98;113.53
67748;HTU21D;54543;50.712;6.070;2023-12-28T04:45:12;9.99;114.52
67748;HTU21D;54543;50.712;6.070;2023-12-28T04:47:37;9.96;113.08
67748;HTU21D;54543;50.712;6.070;2023-12-28T04:50:04;9.89;113.65
67748;HTU21D;54543;50.712;6.070;2023-12-28T04:52:30;9.85;114.04
67748;HTU21D;54543;50.712;6.070;2023-12-28T04:54:56;9.89;114.64
67748;HTU21D;54543;50.712;6.070;2023-12-28T04:57:21;9.89;113.38
67748;HTU21D;54543;50.712;6.070;2023-12-28T04:59:49;9.86;113.06
67748;HTU21D;54543;50.712;6.070;2023-12-28T05:02:15;9.91;115.81
67748;HTU21D;54543;50.712;6.070;2023-12-28T05:04:41;9.94;112.83
67748;HTU21D;54543;50.712;6.070;2023-12-28T05:07:07;9.92;113.67
67748;HTU21D;54543;50.712;6.070;2023-12-28T05:09:33;9.89;114.93
67748;HTU21D;54543;50.712;6.070;2023-12-28T05:11:58;9.96;114.81
67748;HTU21D;54543;50.712;6.070;2023-12-28T05:14:24;9.96;111.60
67748;HTU21D;54543;50.712;6.070;2023-12-28T05:16:50;9.93;113.24
67748;HTU21D;54543;50.712;6.070;2023-12-28T05:19:16;9.95;113.94
67748;HTU21D;54543;50.712;6.070;2023-12-28T05:21:41;9.99;112.36
67748;HTU21D;54543;50.712;6.070;2023-12-28T05:24:07;10.07;110.94
67748;HTU21D;54543;50.712;6.070;2023-12-28T05:26:33;10.05;111.87
67748;HTU21D;54543;50.712;6.070;2023-12-28T05:28:58;10.01;110.78
67748;HTU21D;54543;50.712;6.070;2023-12-28T05:31:24;10.00;111.74
67748;HTU21D;54543;50.712;6.070;2023-12-28T05:33:50;9.98;111.63
67748;HTU21D;54543;50.712;6.070;2023-12-28T05:36:15;9.92;113.02
67748;HTU21D;54543;50.712;6.070;2023-12-28T05:38:41;9.94;111.81
67748;HTU21D;54543;50.712;6.070;2023-12-28T05:41:07;9.94;111.82
67748;HTU21D;54543;50.712;6.070;2023-12-28T05:43:34;9.97;111.63
67748;HTU21D;54543;50.712;6.070;2023-12-28T05:46:00;9.94;111.84
67748;HTU21D;54543;50.712;6.070;2023-12-28T05:48:26;9.90;110.58
67748;HTU21D;54543;50.712;6.070;2023-12-28T05:50:51;9.89;110.77
67748;HTU21D;54543;50.712;6.070;2023-12-28T05:53:17;9.82;112.10
67748;HTU21D;54543;50.712;6.070;2023-12-28T05:55:43;9.82;111.09
67748;HTU21D;54543;50.712;6.070;2023-12-28T05:58:11;9.79;111.03
67748;HTU21D;54543;50.712;6.070;2023-12-28T06:00:37;9.72;114.11
67748;HTU21D;54543;50.712;6.070;2023-12-28T06:03:04;9.76;112.92
67748;HTU21D;54543;50.712;6.070;2023-12-28T06:05:31;9.81;114.09
67748;HTU21D;54543;50.712;6.070;2023-12-28T06:07:57;9.81;114.70
67748;HTU21D;54543;50.712;6.070;2023-12-28T06:10:22;9.79;118.99
67748;HTU21D;54543;50.712;6.070;2023-12-28T06:12:49;9.84;118.99
67748;HTU21D;54543;50.712;6.070;2023-12-28T06:15:15;9.80;113.26
67748;HTU21D;54543;50.712;6.070;2023-12-28T06:17:40;9.82;118.37
67748;HTU21D;54543;50.712;6.070;2023-12-28T06:20:06;9.82;114.68
67748;HTU21D;54543;50.712;6.070;2023-12-28T06:22:33;9.78;113.70
67748;HTU21D;54543;50.712;6.070;2023-12-28T06:24:59;9.68;118.99
67748;HTU21D;54543;50.712;6.070;2023-12-28T06:27:25;9.75;112.58
67748;HTU21D;54543;50.712;6.070;2023-12-28T06:29:50;9.69;114.33
67748;HTU21D;54543;50.712;6.070;2023-12-28T06:32:16;9.69;118.99
67748;HTU21D;54543;50.712;6.070;2023-12-28T06:34:41;9.86;114.69
67748;HTU21D;54543;50.712;6.070;2023-12-28T06:37:07;9.92;114.83
67748;HTU21D;54543;50.712;6.070;2023-12-28T06:39:33;9.94;114.45
67748;HTU21D;54543;50.712;6.070;2023-12-28T06:41:58;9.94;112.71
67748;HTU21D;54543;50.712;6.070;2023-12-28T06:44:24;9.82;118.99
67748;HTU21D;54543;50.712;6.070;2023-12-28T06:46:50;9.81;114.25
67748;HTU21D;54543;50.712;6.070;2023-12-28T06:49:16;9.75;112.66
67748;HTU21D;54543;50.712;6.070;2023-12-28T06:51:42;9.64;112.50
67748;HTU21D;54543;50.712;6.070;2023-12-28T06:54:09;9.59;116.05
67748;HTU21D;54543;50.712;6.070;2023-12-28T06:56:34;9.55;116.66
67748;HTU21D;54543;50.712;6.070;2023-12-28T06:59:00;9.54;116.80
67748;HTU21D;54543;50.712;6.070;2023-12-28T07:01:26;9.51;115.44
67748;HTU21D;54543;50.712;6.070;2023-12-28T07:03:51;9.48;117.35
67748;HTU21D;54543;50.712;6.070;2023-12-28T07:06:17;9.51;115.66
67748;HTU21D;54543;50.712;6.070;2023-12-28T07:08:43;9.56;115.99
67748;HTU21D;54543;50.712;6.070;2023-12-28T07:11:11;9.59;114.05
67748;HTU21D;54543;50.712;6.070;2023-12-28T07:13:37;9.59;115.73
67748;HTU21D;54543;50.712;6.070;2023-12-28T07:16:03;9.65;115.55
67748;HTU21D;54543;50.712;6.070;2023-12-28T07:18:29;9.72;114.57
67748;HTU21D;54543;50.712;6.070;2023-12-28T07:20:54;9.70;114.61
67748;HTU21D;54543;50.712;6.070;2023-12-28T07:23:20;9.77;116.91
67748;HTU21D;54543;50.712;6.070;2023-12-28T07:25:45;9.81;111.94
67748;HTU21D;54543;50.712;6.070;2023-12-28T07:28:11;9.72;113.64
67748;HTU21D;54543;50.712;6.070;2023-12-28T07:30:37;9.70;115.58
67748;HTU21D;54543;50.712;6.070;2023-12-28T07:33:03;9.75;115.34
67748;HTU21D;54543;50.712;6.070;2023-12-28T07:35:29;9.85;113.73
67748;HTU21D;54543;50.712;6.070;2023-12-28T07:37:55;9.97;110.33
67748;HTU21D;54543;50.712;6.070;2023-12-28T07:40:20;9.94;112.51
67748;HTU21D;54543;50.712;6.070;2023-12-28T07:42:46;9.85;111.94
67748;HTU21D;54543;50.712;6.070;2023-12-28T07:45:12;9.75;112.51
67748;HTU21D;54543;50.712;6.070;2023-12-28T07:47:37;9.64;112.76
67748;HTU21D;54543;50.712;6.070;2023-12-28T07:50:03;9.53;115.33
67748;HTU21D;54543;50.712;6.070;2023-12-28T07:52:29;9.57;115.01
67748;HTU21D;54543;50.712;6.070;2023-12-28T07:54:55;9.57;115.36
67748;HTU21D;54543;50.712;6.070;2023-12-28T07:57:21;9.56;114.82
67748;HTU21D;54543;50.712;6.070;2023-12-28T07:59:46;9.63;114.55
67748;HTU21D;54543;50.712;6.070;2023-12-28T08:02:12;9.63;113.68
67748;HTU21D;54543;50.712;6.070;2023-12-28T08:04:38;9.62;112.80
67748;HTU21D;54543;50.712;6.070;2023-12-28T08:07:03;9.64;114.29
67748;HTU21D;54543;50.712;6.070;2023-12-28T08:09:30;9.70;114.62
67748;HTU21D;54543;50.712;6.070;2023-12-28T08:11:55;9.72;111.79
67748;HTU21D;54543;50.712;6.070;2023-12-28T08:14:21;9.78;114.90
67748;HTU21D;54543;50.712;6.070;2023-12-28T08:16:47;9.88;113.97
67748;HTU21D;54543;50.712;6.070;2023-12-28T08:19:13;9.94;112.64
67748;HTU21D;54543;50.712;6.070;2023-12-28T08:21:38;9.91;112.03
67748;HTU21D;54543;50.712;6.070;2023-12-28T08:24:04;9.85;111.51
67748;HTU21D;54543;50.712;6.070;2023-12-28T08:26:30;9.80;111.06
67748;HTU21D;54543;50.712;6.070;2023-12-28T08:28:58;9.84;113.49
67748;HTU21D;54543;50.712;6.070;2023-12-28T08:31:23;9.88;113.01
67748;HTU21D;54543;50.712;6.070;2023-12-28T08:33:49;9.95;111.60
67748;HTU21D;54543;50.712;6.070;2023-12-28T08:36:15;10.00;110.53
67748;HTU21D;54543;50.712;6.070;2023-12-28T08:38:43;10.03;113.31
67748;HTU21D;54543;50.712;6.070;2023-12-28T08:41:20;10.12;110.14
67748;HTU21D;54543;50.712;6.070;2023-12-28T08:43:47;10.10;108.69
67748;HTU21D;54543;50.712;6.070;2023-12-28T08:46:13;10.12;110.57
67748;HTU21D;54543;50.712;6.070;2023-12-28T08:48:40;10.14;110.41
67748;HTU21D;54543;50.712;6.070;2023-12-28T08:51:06;10.14;109.68
67748;HTU21D;54543;50.712;6.070;2023-12-28T08:53:32;10.20;107.71
67748;HTU21D;54543;50.712;6.070;2023-12-28T08:55:57;10.29;108.71
67748;HTU21D;54543;50.712;6.070;2023-12-28T08:58:23;10.45;106.14
67748;HTU21D;54543;50.712;6.070;2023-12-28T09:00:49;10.44;107.34
67748;HTU21D;54543;50.712;6.070;2023-12-28T09:03:14;10.48;108.24
67748;HTU21D;54543;50.712;6.070;2023-12-28T09:05:40;10.59;106.86
67748;HTU21D;54543;50.712;6.070;2023-12-28T09:08:06;10.68;105.32
67748;HTU21D;54543;50.712;6.070;2023-12-28T09:10:31;10.73;104.51
67748;HTU21D;54543;50.712;6.070;2023-12-28T09:12:57;10.69;103.05
67748;HTU21D;54543;50.712;6.070;2023-12-28T09:15:22;10.60;103.61
67748;HTU21D;54543;50.712;6.070;2023-12-28T09:17:48;10.57;103.83
67748;HTU21D;54543;50.712;6.070;2023-12-28T09:20:14;10.56;100.60
67748;HTU21D;54543;50.712;6.070;2023-12-28T09:22:39;10.53;103.65
67748;HTU21D;54543;50.712;6.070;2023-12-28T09:25:05;10.42;102.63
67748;HTU21D;54543;50.712;6.070;2023-12-28T09:27:31;10.49;103.38
67748;HTU21D;54543;50.712;6.070;2023-12-28T09:29:56;10.54;105.30
67748;HTU21D;54543;50.712;6.070;2023-12-28T09:32:22;10.58;101.78
67748;HTU21D;54543;50.712;6.070;2023-12-28T09:34:47;10.67;103.21
67748;HTU21D;54543;50.712;6.070;2023-12-28T09:37:13;10.75;102.23
67748;HTU21D;54543;50.712;6.070;2023-12-28T09:39:39;10.78;100.53
67748;HTU21D;54543;50.712;6.070;2023-12-28T09:42:08;10.69;101.67
67748;HTU21D;54543;50.712;6.070;2023-12-28T09:44:37;10.63;101.26
67748;HTU21D;54543;50.712;6.070;2023-12-28T09:47:04;10.62;102.44
67748;HTU21D;54543;50.712;6.070;2023-12-28T09:49:32;10.57;104.08
67748;HTU21D;54543;50.712;6.070;2023-12-28T09:51:59;10.54;103.74
67748;HTU21D;54543;50.712;6.070;2023-12-28T09:54:24;10.45;105.04
67748;HTU21D;54543;50.712;6.070;2023-12-28T09:56:50;10.46;106.42
67748;HTU21D;54543;50.712;6.070;2023-12-28T09:59:16;10.48;105.27
67748;HTU21D;54543;50.712;6.070;2023-12-28T10:01:43;10.51;102.99
67748;HTU21D;54543;50.712;6.070;2023-12-28T10:04:11;10.52;103.97
67748;HTU21D;54543;50.712;6.070;2023-12-28T10:06:36;10.53;104.99
67748;HTU21D;54543;50.712;6.070;2023-12-28T10:09:02;10.56;105.42
67748;HTU21D;54543;50.712;6.070;2023-12-28T10:11:29;10.67;100.99
67748;HTU21D;54543;50.712;6.070;2023-12-28T10:13:55;10.78;103.70
67748;HTU21D;54543;50.712;6.070;2023-12-28T10:16:20;10.95;102.18
67748;HTU21D;54543;50.712;6.070;2023-12-28T10:18:46;11.07;100.57
67748;HTU21D;54543;50.712;6.070;2023-12-28T10:21:12;11.17;96.65
67748;HTU21D;54543;50.712;6.070;2023-12-28T10:23:38;11.22;97.21
67748;HTU21D;54543;50.712;6.070;2023-12-28T10:26:04;11.25;99.71
67748;HTU21D;54543;50.712;6.070;2023-12-28T10:28:39;11.29;97.46
67748;HTU21D;54543;50.712;6.070;2023-12-28T10:31:06;11.40;97.30
67748;HTU21D;54543;50.712;6.070;2023-12-28T10:33:36;11.49;94.08
67748;HTU21D;54543;50.712;6.070;2023-12-28T10:36:06;11.52;93.85
67748;HTU21D;54543;50.712;6.070;2023-12-28T10:38:36;11.53;94.90
67748;HTU21D;54543;50.712;6.070;2023-12-28T10:41:05;11.53;92.69
67748;HTU21D;54543;50.712;6.070;2023-12-28T10:44:16;11.55;91.55
67748;HTU21D;54543;50.712;6.070;2023-12-28T10:46:27;11.57;91.39
67748;HTU21D;54543;50.712;6.070;2023-12-28T10:48:58;11.57;93.07
67748;HTU21D;54543;50.712;6.070;2023-12-28T10:51:25;11.70;93.13
67748;HTU21D;54543;50.712;6.070;2023-12-28T10:54:00;11.76;94.11
67748;HTU21D;54543;50.712;6.070;2023-12-28T10:56:52;11.87;89.41
67748;HTU21D;54543;50.712;6.070;2023-12-28T11:01:59;11.76;91.79
67748;HTU21D;54543;50.712;6.070;2023-12-28T11:04:41;11.83;92.85
67748;HTU21D;54543;50.712;6.070;2023-12-28T11:07:09;11.89;89.83
67748;HTU21D;54543;50.712;6.070;2023-12-28T11:09:37;11.89;90.12
67748;HTU21D;54543;50.712;6.070;2023-12-28T11:12:07;11.85;89.70
67748;HTU21D;54543;50.712;6.070;2023-12-28T11:14:34;11.85;93.13
67748;HTU21D;54543;50.712;6.070;2023-12-28T11:17:00;11.85;91.98
67748;HTU21D;54543;50.712;6.070;2023-12-28T11:19:28;11.86;89.72
67748;HTU21D;54543;50.712;6.070;2023-12-28T11:21:55;11.87;87.09
67748;HTU21D;54543;50.712;6.070;2023-12-28T11:24:22;11.77;86.44
67748;HTU21D;54543;50.712;6.070;2023-12-28T11:26:55;11.76;88.83
67748;HTU21D;54543;50.712;6.070;2023-12-28T11:29:21;11.78;89.29
67748;HTU21D;54543;50.712;6.070;2023-12-28T11:31:53;11.86;88.12
67748;HTU21D;54543;50.712;6.070;2023-12-28T11:34:28;11.84;86.09
67748;HTU21D;54543;50.712;6.070;2023-12-28T11:37:00;11.77;85.54
67748;HTU21D;54543;50.712;6.070;2023-12-28T11:39:37;11.78;88.25
67748;HTU21D;54543;50.712;6.070;2023-12-28T11:42:06;11.77;89.46
67748;HTU21D;54543;50.712;6.070;2023-12-28T11:44:37;11.76;88.06
67748;HTU21D;54543;50.712;6.070;2023-12-28T11:47:22;11.76;85.85
67748;HTU21D;54543;50.712;6.070;2023-12-28T11:49:48;11.81;91.74
67748;HTU21D;54543;50.712;6.070;2023-12-28T11:52:27;11.78;85.98
67748;HTU21D;54543;50.712;6.070;2023-12-28T11:54:54;11.76;90.85
67748;HTU21D;54543;50.712;6.070;2023-12-28T11:57:20;11.81;89.48
67748;HTU21D;54543;50.712;6.070;2023-12-28T11:59:45;11.87;89.12
67748;HTU21D;54543;50.712;6.070;2023-12-28T12:02:12;12.00;90.53
67748;HTU21D;54543;50.712;6.070;2023-12-28T12:04:39;12.13;86.46
67748;HTU21D;54543;50.712;6.070;2023-12-28T12:07:05;12.23;88.51
67748;HTU21D;54543;50.712;6.070;2023-12-28T12:09:31;12.37;86.67
67748;HTU21D;54543;50.712;6.070;2023-12-28T12:12:03;12.45;85.24
67748;HTU21D;54543;50.712;6.070;2023-12-28T12:14:30;12.52;84.43
67748;HTU21D;54543;50.712;6.070;2023-12-28T12:16:56;12.40;81.55
67748;HTU21D;54543;50.712;6.070;2023-12-28T12:19:25;12.23;82.78
67748;HTU21D;54543;50.712;6.070;2023-12-28T12:21:57;12.06;86.79
67748;HTU21D;54543;50.712;6.070;2023-12-28T12:24:23;12.01;79.73
67748;HTU21D;54543;50.712;6.070;2023-12-28T12:26:50;11.96;81.97
67748;HTU21D;54543;50.712;6.070;2023-12-28T12:29:16;11.92;86.44
67748;HTU21D;54543;50.712;6.070;2023-12-28T12:31:44;11.94;87.51
67748;HTU21D;54543;50.712;6.070;2023-12-28T12:34:10;11.93;86.50
67748;HTU21D;54543;50.712;6.070;2023-12-28T12:36:36;11.91;83.74
67748;HTU21D;54543;50.712;6.070;2023-12-28T12:39:03;11.93;84.09
67748;HTU21D;54543;50.712;6.070;2023-12-28T12:41:33;11.91;82.08
67748;HTU21D;54543;50.712;6.070;2023-12-28T12:43:59;11.82;86.08
67748;HTU21D;54543;50.712;6.070;2023-12-28T12:46:25;11.78;85.82
67748;HTU21D;54543;50.712;6.070;2023-12-28T12:48:57;11.83;84.55
67748;HTU21D;54543;50.712;6.070;2023-12-28T12:51:23;11.86;85.57
67748;HTU21D;54543;50.712;6.070;2023-12-28T12:53:48;11.87;83.48
67748;HTU21D;54543;50.712;6.070;2023-12-28T12:56:14;11.88;83.83
67748;HTU21D;54543;50.712;6.070;2023-12-28T12:58:40;11.81;84.76
67748;HTU21D;54543;50.712;6.070;2023-12-28T13:01:10;11.82;83.81
67748;HTU21D;54543;50.712;6.070;2023-12-28T13:03:36;11.79;85.77
67748;HTU21D;54543;50.712;6.070;2023-12-28T13:06:04;11.81;83.99
67748;HTU21D;54543;50.712;6.070;2023-12-28T13:08:29;11.79;88.32
67748;HTU21D;54543;50.712;6.070;2023-12-28T13:10:55;11.82;87.83
67748;HTU21D;54543;50.712;6.070;2023-12-28T13:13:20;11.85;88.20
67748;HTU21D;54543;50.712;6.070;2023-12-28T13:15:46;11.83;84.09
67748;HTU21D;54543;50.712;6.070;2023-12-28T13:18:12;11.81;84.61
67748;HTU21D;54543;50.712;6.070;2023-12-28T13:20:37;11.81;85.51
67748;HTU21D;54543;50.712;6.070;2023-12-28T13:23:03;11.73;85.41
67748;HTU21D;54543;50.712;6.070;2023-12-28T13:25:29;11.68;86.38
67748;HTU21D;54543;50.712;6.070;2023-12-28T13:27:54;11.59;84.73
67748;HTU21D;54543;50.712;6.070;2023-12-28T13:30:20;11.55;85.51
67748;HTU21D;54543;50.712;6.070;2023-12-28T13:32:47;11.47;86.18
67748;HTU21D;54543;50.712;6.070;2023-12-28T13:35:13;11.46;88.52
67748;HTU21D;54543;50.712;6.070;2023-12-28T13:37:38;11.46;86.66
67748;HTU21D;54543;50.712;6.070;2023-12-28T13:40:05;11.43;85.01
67748;HTU21D;54543;50.712;6.070;2023-12-28T13:42:32;11.40;86.26
67748;HTU21D;54543;50.712;6.070;2023-12-28T13:44:57;11.37;87.89
67748;HTU21D;54543;50.712;6.070;2023-12-28T13:47:23;11.33;87.46
67748;HTU21D;54543;50.712;6.070;2023-12-28T13:49:48;11.31;85.72
67748;HTU21D;54543;50.712;6.070;2023-12-28T13:52:14;11.30;86.30
67748;HTU21D;54543;50.712;6.070;2023-12-28T13:54:41;11.31;84.17
67748;HTU21D;54543;50.712;6.070;2023-12-28T13:57:06;11.32;89.39
67748;HTU21D;54543;50.712;6.070;2023-12-28T13:59:32;11.36;90.23
67748;HTU21D;54543;50.712;6.070;2023-12-28T14:01:58;11.41;90.59
67748;HTU21D;54543;50.712;6.070;2023-12-28T14:04:24;11.41;90.60
67748;HTU21D;54543;50.712;6.070;2023-12-28T14:06:50;11.38;89.15
67748;HTU21D;54543;50.712;6.070;2023-12-28T14:09:15;11.36;90.83
67748;HTU21D;54543;50.712;6.070;2023-12-28T14:11:46;11.30;89.68
67748;HTU21D;54543;50.712;6.070;2023-12-28T14:14:12;11.27;90.82
67748;HTU21D;54543;50.712;6.070;2023-12-28T14:16:38;11.29;89.92
67748;HTU21D;54543;50.712;6.070;2023-12-28T14:19:03;11.28;89.38
67748;HTU21D;54543;50.712;6.070;2023-12-28T14:21:29;11.24;91.06
67748;HTU21D;54543;50.712;6.070;2023-12-28T14:23:59;11.25;92.60
67748;HTU21D;54543;50.712;6.070;2023-12-28T14:26:25;11.27;90.46
67748;HTU21D;54543;50.712;6.070;2023-12-28T14:28:51;11.27;90.83
67748;HTU21D;54543;50.712;6.070;2023-12-28T14:31:17;11.25;96.17
67748;HTU21D;54543;50.712;6.070;2023-12-28T14:33:43;11.27;95.55
67748;HTU21D;54543;50.712;6.070;2023-12-28T14:36:31;11.36;98.84
67748;HTU21D;54543;50.712;6.070;2023-12-28T14:39:02;11.36;93.89
67748;HTU21D;54543;50.712;6.070;2023-12-28T14:41:28;11.38;91.46
67748;HTU21D;54543;50.712;6.070;2023-12-28T14:43:56;11.28;92.31
67748;HTU21D;54543;50.712;6.070;2023-12-28T14:46:25;11.22;95.91
67748;HTU21D;54543;50.712;6.070;2023-12-28T14:48:51;11.20;95.69
67748;HTU21D;54543;50.712;6.070;2023-12-28T14:51:17;11.22;100.16
67748;HTU21D;54543;50.712;6.070;2023-12-28T14:53:42;11.24;97.12
67748;HTU21D;54543;50.712;6.070;2023-12-28T14:56:08;11.27;95.88
67748;HTU21D;54543;50.712;6.070;2023-12-28T14:58:34;11.19;94.56
67748;HTU21D;54543;50.712;6.070;2023-12-28T15:00:59;11.12;96.17
67748;HTU21D;54543;50.712;6.070;2023-12-28T15:03:25;11.11;96.95
67748;HTU21D;54543;50.712;6.070;2023-12-28T15:05:51;11.09;96.78
67748;HTU21D;54543;50.712;6.070;2023-12-28T15:08:17;11.04;97.61
67748;HTU21D;54543;50.712;6.070;2023-12-28T15:10:43;11.09;95.01
67748;HTU21D;54543;50.712;6.070;2023-12-28T15:13:09;11.02;97.88
67748;HTU21D;54543;50.712;6.070;2023-12-28T15:15:35;11.03;100.32